sensor_id;sensor_type;location;lat;lon;timestamp;P1;durP1;ratioP1;P2;durP2;ratioP2
34491;SDS011;20737;49.908;8.126;2023-02-28T00:00:10;2.13;;;1.77;;
34491;SDS011;20737;49.908;8.126;2023-02-28T00:02:40;2.33;;;1.53;;
34491;SDS011;20737;49.908;8.126;2023-02-28T00:05:08;4.10;;;2.10;;
34491;SDS011;20737;49.908;8.126;2023-02-28T00:07:36;2.23;;;1.70;;
34491;SDS011;20737;49.908;8.126;2023-02-28T00:10:06;2.07;;;1.50;;
34491;SDS011;20737;49.908;8.126;2023-02-28T00:15:01;2.10;;;1.27;;
34491;SDS011;20737;49.908;8.126;2023-02-28T00:17:27;2.10;;;1.50;;
34491;SDS011;20737;49.908;8.126;2023-02-28T00:19:54;2.63;;;1.93;;
34491;SDS011;20737;49.908;8.126;2023-02-28T00:22:21;3.97;;;1.60;;
34491;SDS011;20737;49.908;8.126;2023-02-28T00:24:48;2.47;;;1.37;;
34491;SDS011;20737;49.908;8.126;2023-02-28T00:27:15;1.53;;;1.17;;
34491;SDS011;20737;49.908;8.126;2023-02-28T00:29:42;1.70;;;1.60;;
34491;SDS011;20737;49.908;8.126;2023-02-28T00:32:10;2.03;;;1.80;;
34491;SDS011;20737;49.908;8.126;2023-02-28T00:34:37;2.50;;;1.47;;
34491;SDS011;20737;49.908;8.126;2023-02-28T00:37:04;1.30;;;1.20;;
34491;SDS011;20737;49.908;8.126;2023-02-28T00:39:33;1.97;;;1.53;;
34491;SDS011;20737;49.908;8.126;2023-02-28T00:42:01;1.70;;;1.43;;
34491;SDS011;20737;49.908;8.126;2023-02-28T00:44:28;2.87;;;1.40;;
34491;SDS011;20737;49.908;8.126;2023-02-28T00:46:55;3.00;;;1.70;;
34491;SDS011;20737;49.908;8.126;2023-02-28T00:49:24;2.00;;;1.57;;
34491;SDS011;20737;49.908;8.126;2023-02-28T00:51:51;2.70;;;1.80;;
34491;SDS011;20737;49.908;8.126;2023-02-28T00:54:18;1.37;;;1.27;;
34491;SDS011;20737;49.908;8.126;2023-02-28T00:56:46;2.37;;;1.33;;
34491;SDS011;20737;49.908;8.126;2023-02-28T00:59:13;1.80;;;1.70;;
34491;SDS011;20737;49.908;8.126;2023-02-28T01:01:40;2.83;;;1.80;;
34491;SDS011;20737;49.908;8.126;2023-02-28T01:04:07;2.17;;;1.47;;
34491;SDS011;20737;49.908;8.126;2023-02-28T01:06:37;3.37;;;1.47;;
34491;SDS011;20737;49.908;8.126;2023-02-28T01:09:04;4.30;;;1.90;;
34491;SDS011;20737;49.908;8.126;2023-02-28T01:11:32;2.23;;;1.73;;
34491;SDS011;20737;49.908;8.126;2023-02-28T01:14:01;2.03;;;1.80;;
34491;SDS011;20737;49.908;8.126;2023-02-28T01:16:29;1.93;;;1.60;;
34491;SDS011;20737;49.908;8.126;2023-02-28T01:18:57;7.33;;;2.03;;
34491;SDS011;20737;49.908;8.126;2023-02-28T01:21:24;5.70;;;2.03;;
34491;SDS011;20737;49.908;8.126;2023-02-28T01:23:52;4.03;;;1.40;;
34491;SDS011;20737;49.908;8.126;2023-02-28T01:26:23;5.72;;;2.22;;
34491;SDS011;20737;49.908;8.126;2023-02-28T01:28:50;3.83;;;1.90;;
34491;SDS011;20737;49.908;8.126;2023-02-28T01:31:18;4.77;;;2.07;;
34491;SDS011;20737;49.908;8.126;2023-02-28T01:33:46;2.57;;;1.93;;
34491;SDS011;20737;49.908;8.126;2023-02-28T01:36:14;4.83;;;1.90;;
34491;SDS011;20737;49.908;8.126;2023-02-28T01:38:43;4.10;;;2.13;;
34491;SDS011;20737;49.908;8.126;2023-02-28T01:41:12;3.47;;;2.37;;
34491;SDS011;20737;49.908;8.126;2023-02-28T01:43:55;3.13;;;2.00;;
34491;SDS011;20737;49.908;8.126;2023-02-28T01:46:28;6.13;;;2.13;;
34491;SDS011;20737;49.908;8.126;2023-02-28T01:48:57;2.93;;;2.13;;
34491;SDS011;20737;49.908;8.126;2023-02-28T01:51:28;5.23;;;2.27;;
34491;SDS011;20737;49.908;8.126;2023-02-28T01:54:00;2.93;;;1.80;;
34491;SDS011;20737;49.908;8.126;2023-02-28T01:56:32;4.03;;;2.63;;
34491;SDS011;20737;49.908;8.126;2023-02-28T01:59:02;4.25;;;1.80;;
34491;SDS011;20737;49.908;8.126;2023-02-28T02:01:29;2.63;;;2.13;;
34491;SDS011;20737;49.908;8.126;2023-02-28T02:03:57;4.53;;;2.40;;
34491;SDS011;20737;49.908;8.126;2023-02-28T02:06:28;4.73;;;2.43;;
34491;SDS011;20737;49.908;8.126;2023-02-28T02:08:57;5.10;;;2.00;;
34491;SDS011;20737;49.908;8.126;2023-02-28T02:11:23;3.23;;;2.47;;
34491;SDS011;20737;49.908;8.126;2023-02-28T02:14:00;3.63;;;2.70;;
34491;SDS011;20737;49.908;8.126;2023-02-28T02:16:57;4.53;;;2.77;;
34491;SDS011;20737;49.908;8.126;2023-02-28T02:26:06;4.23;;;2.57;;
34491;SDS011;20737;49.908;8.126;2023-02-28T02:29:00;4.87;;;2.80;;
34491;SDS011;20737;49.908;8.126;2023-02-28T02:32:00;5.27;;;2.90;;
34491;SDS011;20737;49.908;8.126;2023-02-28T02:34:45;3.43;;;2.30;;
34491;SDS011;20737;49.908;8.126;2023-02-28T02:37:23;4.77;;;3.13;;
34491;SDS011;20737;49.908;8.126;2023-02-28T02:39:58;8.37;;;4.30;;
34491;SDS011;20737;49.908;8.126;2023-02-28T02:42:29;5.80;;;2.50;;
34491;SDS011;20737;49.908;8.126;2023-02-28T02:45:05;5.33;;;3.13;;
34491;SDS011;20737;49.908;8.126;2023-02-28T02:47:35;4.83;;;3.37;;
34491;SDS011;20737;49.908;8.126;2023-02-28T02:50:08;6.17;;;3.27;;
34491;SDS011;20737;49.908;8.126;2023-02-28T02:52:40;5.65;;;3.17;;
34491;SDS011;20737;49.908;8.126;2023-02-28T02:55:15;4.10;;;2.80;;
34491;SDS011;20737;49.908;8.126;2023-02-28T02:57:45;8.27;;;3.23;;
34491;SDS011;20737;49.908;8.126;2023-02-28T03:00:16;4.80;;;2.97;;
34491;SDS011;20737;49.908;8.126;2023-02-28T03:02:45;5.10;;;3.00;;
34491;SDS011;20737;49.908;8.126;2023-02-28T03:07:50;5.83;;;3.00;;
34491;SDS011;20737;49.908;8.126;2023-02-28T03:10:30;4.33;;;2.90;;
34491;SDS011;20737;49.908;8.126;2023-02-28T03:13:03;5.75;;;3.03;;
34491;SDS011;20737;49.908;8.126;2023-02-28T03:15:39;4.87;;;3.03;;
34491;SDS011;20737;49.908;8.126;2023-02-28T03:18:17;3.10;;;2.80;;
34491;SDS011;20737;49.908;8.126;2023-02-28T03:20:58;4.27;;;2.47;;
34491;SDS011;20737;49.908;8.126;2023-02-28T03:23:34;5.10;;;3.30;;
34491;SDS011;20737;49.908;8.126;2023-02-28T03:26:12;4.13;;;2.90;;
34491;SDS011;20737;49.908;8.126;2023-02-28T03:28:47;7.30;;;2.63;;
34491;SDS011;20737;49.908;8.126;2023-02-28T03:31:20;4.20;;;2.77;;
34491;SDS011;20737;49.908;8.126;2023-02-28T03:33:54;4.68;;;2.90;;
34491;SDS011;20737;49.908;8.126;2023-02-28T03:36:27;4.82;;;2.42;;
34491;SDS011;20737;49.908;8.126;2023-02-28T03:38:57;2.90;;;1.93;;
34491;SDS011;20737;49.908;8.126;2023-02-28T03:41:29;6.73;;;2.70;;
34491;SDS011;20737;49.908;8.126;2023-02-28T03:44:00;3.73;;;2.83;;
34491;SDS011;20737;49.908;8.126;2023-02-28T03:46:32;3.38;;;2.40;;
34491;SDS011;20737;49.908;8.126;2023-02-28T03:49:05;3.85;;;2.33;;
34491;SDS011;20737;49.908;8.126;2023-02-28T03:54:11;4.30;;;2.50;;
34491;SDS011;20737;49.908;8.126;2023-02-28T03:56:42;3.42;;;2.72;;
34491;SDS011;20737;49.908;8.126;2023-02-28T03:59:15;2.85;;;2.28;;
34491;SDS011;20737;49.908;8.126;2023-02-28T04:01:45;3.10;;;2.67;;
34491;SDS011;20737;49.908;8.126;2023-02-28T04:04:15;2.13;;;1.73;;
34491;SDS011;20737;49.908;8.126;2023-02-28T04:06:44;3.87;;;2.43;;
34491;SDS011;20737;49.908;8.126;2023-02-28T04:09:13;1.43;;;1.30;;
34491;SDS011;20737;49.908;8.126;2023-02-28T04:11:41;4.30;;;2.60;;
34491;SDS011;20737;49.908;8.126;2023-02-28T04:14:16;5.33;;;2.80;;
34491;SDS011;20737;49.908;8.126;2023-02-28T04:16:44;3.13;;;2.57;;
34491;SDS011;20737;49.908;8.126;2023-02-28T04:19:11;3.63;;;2.53;;
34491;SDS011;20737;49.908;8.126;2023-02-28T04:21:40;3.73;;;2.97;;
34491;SDS011;20737;49.908;8.126;2023-02-28T04:24:10;4.00;;;2.10;;
34491;SDS011;20737;49.908;8.126;2023-02-28T04:26:39;3.87;;;2.70;;
34491;SDS011;20737;49.908;8.126;2023-02-28T04:29:08;2.97;;;2.67;;
34491;SDS011;20737;49.908;8.126;2023-02-28T04:31:36;3.43;;;2.33;;
34491;SDS011;20737;49.908;8.126;2023-02-28T04:34:02;5.50;;;2.60;;
34491;SDS011;20737;49.908;8.126;2023-02-28T04:36:30;4.37;;;2.60;;
34491;SDS011;20737;49.908;8.126;2023-02-28T04:38:56;4.03;;;2.27;;
34491;SDS011;20737;49.908;8.126;2023-02-28T04:41:27;5.07;;;2.50;;
34491;SDS011;20737;49.908;8.126;2023-02-28T04:43:56;3.80;;;2.63;;
34491;SDS011;20737;49.908;8.126;2023-02-28T04:46:23;3.57;;;2.67;;
34491;SDS011;20737;49.908;8.126;2023-02-28T04:48:50;6.13;;;2.87;;
34491;SDS011;20737;49.908;8.126;2023-02-28T04:51:17;3.73;;;2.70;;
34491;SDS011;20737;49.908;8.126;2023-02-28T04:53:45;4.07;;;2.60;;
34491;SDS011;20737;49.908;8.126;2023-02-28T04:56:14;5.70;;;3.17;;
34491;SDS011;20737;49.908;8.126;2023-02-28T04:58:45;3.07;;;2.20;;
34491;SDS011;20737;49.908;8.126;2023-02-28T05:01:16;4.37;;;2.53;;
34491;SDS011;20737;49.908;8.126;2023-02-28T05:03:45;3.53;;;2.07;;
34491;SDS011;20737;49.908;8.126;2023-02-28T05:06:14;3.57;;;2.17;;
34491;SDS011;20737;49.908;8.126;2023-02-28T05:08:42;3.93;;;2.43;;
34491;SDS011;20737;49.908;8.126;2023-02-28T05:11:12;5.77;;;2.10;;
34491;SDS011;20737;49.908;8.126;2023-02-28T05:13:41;6.80;;;2.23;;
34491;SDS011;20737;49.908;8.126;2023-02-28T05:16:10;5.67;;;2.60;;
34491;SDS011;20737;49.908;8.126;2023-02-28T05:18:40;5.30;;;2.67;;
34491;SDS011;20737;49.908;8.126;2023-02-28T05:21:12;3.60;;;2.33;;
34491;SDS011;20737;49.908;8.126;2023-02-28T05:23:50;2.78;;;2.28;;
34491;SDS011;20737;49.908;8.126;2023-02-28T05:26:17;2.37;;;1.53;;
34491;SDS011;20737;49.908;8.126;2023-02-28T05:28:46;4.57;;;3.00;;
34491;SDS011;20737;49.908;8.126;2023-02-28T05:31:14;2.50;;;2.27;;
34491;SDS011;20737;49.908;8.126;2023-02-28T05:33:43;5.77;;;2.87;;
34491;SDS011;20737;49.908;8.126;2023-02-28T05:36:12;2.40;;;1.70;;
34491;SDS011;20737;49.908;8.126;2023-02-28T05:38:38;5.27;;;2.97;;
34491;SDS011;20737;49.908;8.126;2023-02-28T05:41:07;2.63;;;2.33;;
34491;SDS011;20737;49.908;8.126;2023-02-28T05:43:35;2.93;;;2.00;;
34491;SDS011;20737;49.908;8.126;2023-02-28T05:46:03;3.27;;;1.97;;
34491;SDS011;20737;49.908;8.126;2023-02-28T05:48:33;4.00;;;2.70;;
34491;SDS011;20737;49.908;8.126;2023-02-28T05:51:01;5.40;;;2.47;;
34491;SDS011;20737;49.908;8.126;2023-02-28T05:53:28;5.87;;;2.73;;
34491;SDS011;20737;49.908;8.126;2023-02-28T05:55:55;3.73;;;2.13;;
34491;SDS011;20737;49.908;8.126;2023-02-28T05:58:23;5.60;;;2.63;;
34491;SDS011;20737;49.908;8.126;2023-02-28T06:00:54;4.63;;;2.57;;
34491;SDS011;20737;49.908;8.126;2023-02-28T06:03:20;3.20;;;2.30;;
34491;SDS011;20737;49.908;8.126;2023-02-28T06:05:48;2.77;;;2.27;;
34491;SDS011;20737;49.908;8.126;2023-02-28T06:08:16;8.77;;;2.70;;
34491;SDS011;20737;49.908;8.126;2023-02-28T06:10:47;4.20;;;2.40;;
34491;SDS011;20737;49.908;8.126;2023-02-28T06:13:14;3.40;;;2.50;;
34491;SDS011;20737;49.908;8.126;2023-02-28T06:15:41;3.50;;;2.23;;
34491;SDS011;20737;49.908;8.126;2023-02-28T06:18:08;3.93;;;2.73;;
34491;SDS011;20737;49.908;8.126;2023-02-28T06:20:35;5.40;;;2.30;;
34491;SDS011;20737;49.908;8.126;2023-02-28T06:23:03;3.47;;;1.93;;
34491;SDS011;20737;49.908;8.126;2023-02-28T06:25:30;2.63;;;2.10;;
34491;SDS011;20737;49.908;8.126;2023-02-28T06:27:57;2.57;;;1.93;;
34491;SDS011;20737;49.908;8.126;2023-02-28T06:30:24;3.87;;;2.40;;
34491;SDS011;20737;49.908;8.126;2023-02-28T06:32:53;2.83;;;2.10;;
34491;SDS011;20737;49.908;8.126;2023-02-28T06:35:20;4.80;;;2.00;;
34491;SDS011;20737;49.908;8.126;2023-02-28T06:37:47;5.10;;;2.20;;
34491;SDS011;20737;49.908;8.126;2023-02-28T06:40:15;3.50;;;2.30;;
34491;SDS011;20737;49.908;8.126;2023-02-28T06:42:42;2.73;;;2.03;;
34491;SDS011;20737;49.908;8.126;2023-02-28T06:45:09;3.27;;;1.97;;
34491;SDS011;20737;49.908;8.126;2023-02-28T06:47:37;3.53;;;1.67;;
34491;SDS011;20737;49.908;8.126;2023-02-28T06:50:04;3.93;;;2.33;;
34491;SDS011;20737;49.908;8.126;2023-02-28T06:52:32;4.97;;;2.50;;
34491;SDS011;20737;49.908;8.126;2023-02-28T06:55:01;5.13;;;2.40;;
34491;SDS011;20737;49.908;8.126;2023-02-28T06:57:29;4.13;;;2.33;;
34491;SDS011;20737;49.908;8.126;2023-02-28T06:59:57;3.63;;;2.20;;
34491;SDS011;20737;49.908;8.126;2023-02-28T07:02:25;4.97;;;2.50;;
34491;SDS011;20737;49.908;8.126;2023-02-28T07:04:51;2.80;;;2.10;;
34491;SDS011;20737;49.908;8.126;2023-02-28T07:07:18;3.57;;;2.20;;
34491;SDS011;20737;49.908;8.126;2023-02-28T07:09:45;2.93;;;1.83;;
34491;SDS011;20737;49.908;8.126;2023-02-28T07:12:12;3.80;;;2.35;;
34491;SDS011;20737;49.908;8.126;2023-02-28T07:14:40;4.43;;;2.30;;
34491;SDS011;20737;49.908;8.126;2023-02-28T07:17:07;4.15;;;2.28;;
34491;SDS011;20737;49.908;8.126;2023-02-28T07:19:35;2.45;;;2.25;;
34491;SDS011;20737;49.908;8.126;2023-02-28T07:22:02;5.70;;;2.10;;
34491;SDS011;20737;49.908;8.126;2023-02-28T07:24:29;3.17;;;2.33;;
34491;SDS011;20737;49.908;8.126;2023-02-28T07:26:56;3.13;;;2.20;;
34491;SDS011;20737;49.908;8.126;2023-02-28T07:29:24;4.03;;;2.28;;
34491;SDS011;20737;49.908;8.126;2023-02-28T07:31:54;4.25;;;2.20;;
34491;SDS011;20737;49.908;8.126;2023-02-28T07:34:23;4.60;;;2.60;;
34491;SDS011;20737;49.908;8.126;2023-02-28T07:36:52;3.47;;;2.22;;
34491;SDS011;20737;49.908;8.126;2023-02-28T07:39:19;5.35;;;2.85;;
34491;SDS011;20737;49.908;8.126;2023-02-28T07:41:46;4.55;;;2.50;;
34491;SDS011;20737;49.908;8.126;2023-02-28T07:44:13;4.65;;;2.80;;
34491;SDS011;20737;49.908;8.126;2023-02-28T07:46:40;5.38;;;2.67;;
34491;SDS011;20737;49.908;8.126;2023-02-28T07:49:09;6.30;;;3.55;;
34491;SDS011;20737;49.908;8.126;2023-02-28T07:51:38;4.60;;;2.40;;
34491;SDS011;20737;49.908;8.126;2023-02-28T07:54:05;5.80;;;2.83;;
34491;SDS011;20737;49.908;8.126;2023-02-28T07:56:32;3.17;;;2.42;;
34491;SDS011;20737;49.908;8.126;2023-02-28T07:58:59;7.65;;;2.83;;
34491;SDS011;20737;49.908;8.126;2023-02-28T08:01:26;6.40;;;2.67;;
34491;SDS011;20737;49.908;8.126;2023-02-28T08:03:53;5.05;;;2.88;;
34491;SDS011;20737;49.908;8.126;2023-02-28T08:06:24;2.72;;;2.53;;
34491;SDS011;20737;49.908;8.126;2023-02-28T08:08:52;5.60;;;3.40;;
34491;SDS011;20737;49.908;8.126;2023-02-28T08:11:21;3.83;;;2.78;;
34491;SDS011;20737;49.908;8.126;2023-02-28T08:13:47;6.15;;;2.42;;
34491;SDS011;20737;49.908;8.126;2023-02-28T08:16:14;2.72;;;2.50;;
34491;SDS011;20737;49.908;8.126;2023-02-28T08:18:46;3.67;;;2.78;;
34491;SDS011;20737;49.908;8.126;2023-02-28T08:21:12;3.85;;;3.08;;
34491;SDS011;20737;49.908;8.126;2023-02-28T08:23:41;3.50;;;2.33;;
34491;SDS011;20737;49.908;8.126;2023-02-28T08:26:07;4.25;;;2.63;;
34491;SDS011;20737;49.908;8.126;2023-02-28T08:28:34;3.15;;;2.70;;
34491;SDS011;20737;49.908;8.126;2023-02-28T08:31:01;3.88;;;2.35;;
34491;SDS011;20737;49.908;8.126;2023-02-28T08:33:34;5.53;;;2.63;;
34491;SDS011;20737;49.908;8.126;2023-02-28T08:36:01;3.23;;;2.83;;
34491;SDS011;20737;49.908;8.126;2023-02-28T08:38:28;2.90;;;2.57;;
34491;SDS011;20737;49.908;8.126;2023-02-28T08:40:58;4.13;;;2.80;;
34491;SDS011;20737;49.908;8.126;2023-02-28T08:43:26;7.33;;;3.70;;
34491;SDS011;20737;49.908;8.126;2023-02-28T08:45:57;6.87;;;2.53;;
34491;SDS011;20737;49.908;8.126;2023-02-28T08:48:25;3.97;;;2.43;;
34491;SDS011;20737;49.908;8.126;2023-02-28T08:50:56;3.50;;;2.53;;
34491;SDS011;20737;49.908;8.126;2023-02-28T08:53:23;6.27;;;2.90;;
34491;SDS011;20737;49.908;8.126;2023-02-28T08:55:59;5.40;;;2.80;;
34491;SDS011;20737;49.908;8.126;2023-02-28T08:58:27;4.10;;;2.65;;
34491;SDS011;20737;49.908;8.126;2023-02-28T09:00:54;3.20;;;2.43;;
34491;SDS011;20737;49.908;8.126;2023-02-28T09:03:23;3.27;;;2.40;;
34491;SDS011;20737;49.908;8.126;2023-02-28T09:05:52;4.53;;;2.63;;
34491;SDS011;20737;49.908;8.126;2023-02-28T09:08:20;4.27;;;2.40;;
34491;SDS011;20737;49.908;8.126;2023-02-28T09:10:47;4.50;;;3.00;;
34491;SDS011;20737;49.908;8.126;2023-02-28T09:13:15;5.93;;;2.87;;
34491;SDS011;20737;49.908;8.126;2023-02-28T09:15:42;3.25;;;2.63;;
34491;SDS011;20737;49.908;8.126;2023-02-28T09:18:08;3.72;;;2.50;;
34491;SDS011;20737;49.908;8.126;2023-02-28T09:20:37;4.20;;;3.00;;
34491;SDS011;20737;49.908;8.126;2023-02-28T09:23:04;4.45;;;3.30;;
34491;SDS011;20737;49.908;8.126;2023-02-28T09:25:31;4.15;;;3.17;;
34491;SDS011;20737;49.908;8.126;2023-02-28T09:27:58;3.25;;;2.95;;
34491;SDS011;20737;49.908;8.126;2023-02-28T09:30:26;6.22;;;3.03;;
34491;SDS011;20737;49.908;8.126;2023-02-28T09:32:53;6.50;;;3.42;;
34491;SDS011;20737;49.908;8.126;2023-02-28T09:35:20;4.70;;;3.53;;
34491;SDS011;20737;49.908;8.126;2023-02-28T09:37:48;5.20;;;3.13;;
34491;SDS011;20737;49.908;8.126;2023-02-28T09:40:16;3.58;;;3.00;;
34491;SDS011;20737;49.908;8.126;2023-02-28T09:42:48;5.28;;;3.10;;
34491;SDS011;20737;49.908;8.126;2023-02-28T09:45:19;4.22;;;2.70;;
34491;SDS011;20737;49.908;8.126;2023-02-28T09:47:52;3.95;;;2.78;;
34491;SDS011;20737;49.908;8.126;2023-02-28T09:50:23;3.85;;;2.80;;
34491;SDS011;20737;49.908;8.126;2023-02-28T09:52:58;4.45;;;2.85;;
34491;SDS011;20737;49.908;8.126;2023-02-28T09:55:27;3.67;;;3.03;;
34491;SDS011;20737;49.908;8.126;2023-02-28T09:57:56;3.47;;;2.72;;
34491;SDS011;20737;49.908;8.126;2023-02-28T10:00:27;3.50;;;3.20;;
34491;SDS011;20737;49.908;8.126;2023-02-28T10:03:09;3.40;;;2.80;;
34491;SDS011;20737;49.908;8.126;2023-02-28T10:05:52;2.90;;;2.58;;
34491;SDS011;20737;49.908;8.126;2023-02-28T10:08:23;3.60;;;3.28;;
34491;SDS011;20737;49.908;8.126;2023-02-28T10:10:54;3.35;;;3.03;;
34491;SDS011;20737;49.908;8.126;2023-02-28T10:13:25;5.55;;;2.88;;
34491;SDS011;20737;49.908;8.126;2023-02-28T10:15:58;4.20;;;3.05;;
34491;SDS011;20737;49.908;8.126;2023-02-28T10:18:30;4.05;;;3.00;;
34491;SDS011;20737;49.908;8.126;2023-02-28T10:21:08;3.45;;;2.88;;
34491;SDS011;20737;49.908;8.126;2023-02-28T10:23:43;5.78;;;3.35;;
34491;SDS011;20737;49.908;8.126;2023-02-28T10:26:13;4.35;;;3.05;;
34491;SDS011;20737;49.908;8.126;2023-02-28T10:28:42;4.15;;;3.25;;
34491;SDS011;20737;49.908;8.126;2023-02-28T10:31:09;5.63;;;3.30;;
34491;SDS011;20737;49.908;8.126;2023-02-28T10:33:42;3.38;;;2.97;;
34491;SDS011;20737;49.908;8.126;2023-02-28T10:36:10;4.13;;;3.13;;
34491;SDS011;20737;49.908;8.126;2023-02-28T10:38:41;3.60;;;3.30;;
34491;SDS011;20737;49.908;8.126;2023-02-28T10:41:09;7.50;;;3.50;;
34491;SDS011;20737;49.908;8.126;2023-02-28T10:43:38;5.13;;;3.83;;
34491;SDS011;20737;49.908;8.126;2023-02-28T10:46:11;5.07;;;3.20;;
34491;SDS011;20737;49.908;8.126;2023-02-28T10:49:01;4.45;;;3.30;;
34491;SDS011;20737;49.908;8.126;2023-02-28T10:51:34;7.93;;;3.47;;
34491;SDS011;20737;49.908;8.126;2023-02-28T10:54:02;5.40;;;3.58;;
34491;SDS011;20737;49.908;8.126;2023-02-28T10:56:30;5.82;;;3.40;;
34491;SDS011;20737;49.908;8.126;2023-02-28T10:58:58;5.28;;;3.05;;
34491;SDS011;20737;49.908;8.126;2023-02-28T11:01:34;4.68;;;3.20;;
34491;SDS011;20737;49.908;8.126;2023-02-28T11:04:04;4.68;;;2.97;;
34491;SDS011;20737;49.908;8.126;2023-02-28T11:06:43;5.50;;;2.78;;
34491;SDS011;20737;49.908;8.126;2023-02-28T11:09:15;5.22;;;2.83;;
34491;SDS011;20737;49.908;8.126;2023-02-28T11:11:47;4.15;;;2.75;;
34491;SDS011;20737;49.908;8.126;2023-02-28T11:14:18;5.00;;;3.17;;
34491;SDS011;20737;49.908;8.126;2023-02-28T11:16:48;4.70;;;3.40;;
34491;SDS011;20737;49.908;8.126;2023-02-28T11:19:18;6.55;;;3.83;;
34491;SDS011;20737;49.908;8.126;2023-02-28T11:21:53;5.93;;;3.75;;
34491;SDS011;20737;49.908;8.126;2023-02-28T11:24:24;5.65;;;3.25;;
34491;SDS011;20737;49.908;8.126;2023-02-28T11:26:53;6.25;;;3.45;;
34491;SDS011;20737;49.908;8.126;2023-02-28T11:29:21;6.57;;;3.28;;
34491;SDS011;20737;49.908;8.126;2023-02-28T11:32:00;3.72;;;2.83;;
34491;SDS011;20737;49.908;8.126;2023-02-28T11:34:30;5.25;;;3.35;;
34491;SDS011;20737;49.908;8.126;2023-02-28T11:36:59;5.80;;;3.90;;
34491;SDS011;20737;49.908;8.126;2023-02-28T11:39:30;7.80;;;4.10;;
34491;SDS011;20737;49.908;8.126;2023-02-28T11:45:08;4.50;;;4.07;;
34491;SDS011;20737;49.908;8.126;2023-02-28T11:47:44;5.03;;;3.90;;
34491;SDS011;20737;49.908;8.126;2023-02-28T11:50:26;7.07;;;3.97;;
34491;SDS011;20737;49.908;8.126;2023-02-28T11:53:10;6.45;;;3.92;;
34491;SDS011;20737;49.908;8.126;2023-02-28T11:55:44;4.60;;;3.60;;
34491;SDS011;20737;49.908;8.126;2023-02-28T12:01:15;4.85;;;3.67;;
34491;SDS011;20737;49.908;8.126;2023-02-28T12:03:56;3.35;;;3.03;;
34491;SDS011;20737;49.908;8.126;2023-02-28T12:06:32;5.82;;;3.83;;
34491;SDS011;20737;49.908;8.126;2023-02-28T12:09:13;4.95;;;4.45;;
34491;SDS011;20737;49.908;8.126;2023-02-28T12:11:54;4.47;;;3.92;;
34491;SDS011;20737;49.908;8.126;2023-02-28T12:14:27;4.47;;;3.42;;
34491;SDS011;20737;49.908;8.126;2023-02-28T12:17:14;4.25;;;3.70;;
34491;SDS011;20737;49.908;8.126;2023-02-28T12:19:51;4.70;;;3.80;;
34491;SDS011;20737;49.908;8.126;2023-02-28T12:22:30;5.63;;;3.75;;
34491;SDS011;20737;49.908;8.126;2023-02-28T12:28:06;4.45;;;3.30;;
34491;SDS011;20737;49.908;8.126;2023-02-28T12:30:35;4.70;;;3.20;;
34491;SDS011;20737;49.908;8.126;2023-02-28T12:33:08;4.45;;;3.45;;
34491;SDS011;20737;49.908;8.126;2023-02-28T12:35:41;4.78;;;3.60;;
34491;SDS011;20737;49.908;8.126;2023-02-28T12:38:14;5.88;;;3.63;;
34491;SDS011;20737;49.908;8.126;2023-02-28T12:40:47;4.90;;;3.63;;
34491;SDS011;20737;49.908;8.126;2023-02-28T12:43:17;4.88;;;3.70;;
34491;SDS011;20737;49.908;8.126;2023-02-28T12:45:46;3.83;;;3.42;;
34491;SDS011;20737;49.908;8.126;2023-02-28T12:48:18;6.28;;;4.00;;
34491;SDS011;20737;49.908;8.126;2023-02-28T12:50:50;4.90;;;4.13;;
34491;SDS011;20737;49.908;8.126;2023-02-28T12:53:21;5.03;;;3.80;;
34491;SDS011;20737;49.908;8.126;2023-02-28T12:55:56;5.05;;;3.90;;
34491;SDS011;20737;49.908;8.126;2023-02-28T12:58:35;5.47;;;3.78;;
34491;SDS011;20737;49.908;8.126;2023-02-28T13:01:12;5.38;;;4.25;;
34491;SDS011;20737;49.908;8.126;2023-02-28T13:07:19;6.75;;;3.97;;
34491;SDS011;20737;49.908;8.126;2023-02-28T13:10:02;6.20;;;3.75;;
34491;SDS011;20737;49.908;8.126;2023-02-28T13:12:31;4.18;;;3.78;;
34491;SDS011;20737;49.908;8.126;2023-02-28T13:15:04;5.13;;;3.72;;
34491;SDS011;20737;49.908;8.126;2023-02-28T13:17:37;4.72;;;3.83;;
34491;SDS011;20737;49.908;8.126;2023-02-28T13:20:13;4.30;;;3.33;;
34491;SDS011;20737;49.908;8.126;2023-02-28T13:22:46;4.80;;;3.97;;
34491;SDS011;20737;49.908;8.126;2023-02-28T13:34:33;4.57;;;3.95;;
34491;SDS011;20737;49.908;8.126;2023-02-28T13:40:22;5.05;;;4.40;;
34491;SDS011;20737;49.908;8.126;2023-02-28T13:42:56;4.78;;;4.28;;
34491;SDS011;20737;49.908;8.126;2023-02-28T13:45:24;6.97;;;4.43;;
34491;SDS011;20737;49.908;8.126;2023-02-28T13:47:53;4.70;;;3.80;;
34491;SDS011;20737;49.908;8.126;2023-02-28T13:50:27;8.48;;;4.63;;
34491;SDS011;20737;49.908;8.126;2023-02-28T13:53:01;6.57;;;4.57;;
34491;SDS011;20737;49.908;8.126;2023-02-28T13:55:45;7.18;;;4.20;;
34491;SDS011;20737;49.908;8.126;2023-02-28T13:58:24;5.47;;;4.53;;
34491;SDS011;20737;49.908;8.126;2023-02-28T14:01:10;8.48;;;4.47;;
34491;SDS011;20737;49.908;8.126;2023-02-28T14:03:56;5.32;;;4.00;;
34491;SDS011;20737;49.908;8.126;2023-02-28T14:06:35;6.45;;;4.43;;
34491;SDS011;20737;49.908;8.126;2023-02-28T14:09:05;5.25;;;4.28;;
34491;SDS011;20737;49.908;8.126;2023-02-28T14:11:44;6.47;;;4.57;;
34491;SDS011;20737;49.908;8.126;2023-02-28T14:17:21;7.72;;;4.82;;
34491;SDS011;20737;49.908;8.126;2023-02-28T14:19:48;6.55;;;4.85;;
34491;SDS011;20737;49.908;8.126;2023-02-28T14:22:18;5.72;;;4.93;;
34491;SDS011;20737;49.908;8.126;2023-02-28T14:25:08;8.18;;;4.70;;
34491;SDS011;20737;49.908;8.126;2023-02-28T14:27:43;5.72;;;4.80;;
34491;SDS011;20737;49.908;8.126;2023-02-28T14:30:26;7.50;;;4.75;;
34491;SDS011;20737;49.908;8.126;2023-02-28T14:36:04;6.72;;;4.90;;
34491;SDS011;20737;49.908;8.126;2023-02-28T14:38:40;7.35;;;4.90;;
34491;SDS011;20737;49.908;8.126;2023-02-28T14:41:18;7.20;;;4.68;;
34491;SDS011;20737;49.908;8.126;2023-02-28T14:43:55;6.10;;;4.63;;
34491;SDS011;20737;49.908;8.126;2023-02-28T14:46:25;6.57;;;4.82;;
34491;SDS011;20737;49.908;8.126;2023-02-28T14:48:56;7.23;;;4.27;;
34491;SDS011;20737;49.908;8.126;2023-02-28T14:51:25;7.60;;;4.38;;
34491;SDS011;20737;49.908;8.126;2023-02-28T14:53:52;6.47;;;4.85;;
34491;SDS011;20737;49.908;8.126;2023-02-28T14:56:24;6.85;;;4.70;;
34491;SDS011;20737;49.908;8.126;2023-02-28T14:58:55;5.75;;;4.53;;
34491;SDS011;20737;49.908;8.126;2023-02-28T15:01:24;7.22;;;4.90;;
34491;SDS011;20737;49.908;8.126;2023-02-28T15:03:59;8.45;;;4.97;;
34491;SDS011;20737;49.908;8.126;2023-02-28T15:06:27;5.65;;;4.25;;
34491;SDS011;20737;49.908;8.126;2023-02-28T15:09:08;6.85;;;4.80;;
34491;SDS011;20737;49.908;8.126;2023-02-28T15:11:36;6.05;;;5.20;;
34491;SDS011;20737;49.908;8.126;2023-02-28T15:14:04;9.00;;;5.47;;
34491;SDS011;20737;49.908;8.126;2023-02-28T15:16:33;8.35;;;4.18;;
34491;SDS011;20737;49.908;8.126;2023-02-28T15:19:04;7.13;;;5.07;;
34491;SDS011;20737;49.908;8.126;2023-02-28T15:21:37;8.18;;;5.07;;
34491;SDS011;20737;49.908;8.126;2023-02-28T15:24:10;7.15;;;4.65;;
34491;SDS011;20737;49.908;8.126;2023-02-28T15:26:41;6.75;;;4.53;;
34491;SDS011;20737;49.908;8.126;2023-02-28T15:29:11;8.65;;;4.28;;
34491;SDS011;20737;49.908;8.126;2023-02-28T15:31:45;6.55;;;4.68;;
34491;SDS011;20737;49.908;8.126;2023-02-28T15:34:15;6.70;;;4.28;;
34491;SDS011;20737;49.908;8.126;2023-02-28T15:36:45;8.02;;;4.55;;
34491;SDS011;20737;49.908;8.126;2023-02-28T15:39:18;6.07;;;4.22;;
34491;SDS011;20737;49.908;8.126;2023-02-28T15:41:46;7.40;;;4.10;;
34491;SDS011;20737;49.908;8.126;2023-02-28T15:44:13;6.65;;;4.65;;
34491;SDS011;20737;49.908;8.126;2023-02-28T15:46:42;7.32;;;4.45;;
34491;SDS011;20737;49.908;8.126;2023-02-28T15:49:19;8.15;;;4.20;;
34491;SDS011;20737;49.908;8.126;2023-02-28T15:51:48;8.02;;;5.10;;
34491;SDS011;20737;49.908;8.126;2023-02-28T15:54:17;8.00;;;3.85;;